sensor_id;sensor_type;location;lat;lon;timestamp;P1;durP1;ratioP1;P2;durP2;ratioP2
12792;SDS011;6460;42.684;23.260;2022-07-29T00:01:49;11.97;;;10.87;;
12792;SDS011;6460;42.684;23.260;2022-07-29T00:04:17;12.27;;;11.07;;
12792;SDS011;6460;42.684;23.260;2022-07-29T00:06:45;11.67;;;10.47;;
12792;SDS011;6460;42.684;23.260;2022-07-29T00:09:13;11.43;;;10.23;;
12792;SDS011;6460;42.684;23.260;2022-07-29T00:11:40;12.13;;;11.03;;
12792;SDS011;6460;42.684;23.260;2022-07-29T00:14:08;12.40;;;11.20;;
12792;SDS011;6460;42.684;23.260;2022-07-29T00:16:35;11.10;;;10.07;;
12792;SDS011;6460;42.684;23.260;2022-07-29T00:19:03;11.60;;;10.60;;
12792;SDS011;6460;42.684;23.260;2022-07-29T00:21:30;11.47;;;10.30;;
12792;SDS011;6460;42.684;23.260;2022-07-29T00:23:58;11.53;;;10.23;;
12792;SDS011;6460;42.684;23.260;2022-07-29T00:26:26;11.97;;;10.77;;
12792;SDS011;6460;42.684;23.260;2022-07-29T00:28:57;11.20;;;10.17;;
12792;SDS011;6460;42.684;23.260;2022-07-29T00:31:24;11.80;;;9.80;;
12792;SDS011;6460;42.684;23.260;2022-07-29T00:33:52;10.77;;;9.77;;
12792;SDS011;6460;42.684;23.260;2022-07-29T00:36:19;10.67;;;9.70;;
12792;SDS011;6460;42.684;23.260;2022-07-29T00:38:46;10.83;;;9.87;;
12792;SDS011;6460;42.684;23.260;2022-07-29T00:41:13;11.83;;;9.93;;
12792;SDS011;6460;42.684;23.260;2022-07-29T00:43:42;11.40;;;10.30;;
12792;SDS011;6460;42.684;23.260;2022-07-29T00:46:09;13.33;;;12.13;;
12792;SDS011;6460;42.684;23.260;2022-07-29T00:48:37;11.47;;;10.37;;
12792;SDS011;6460;42.684;23.260;2022-07-29T00:51:05;11.33;;;10.13;;
12792;SDS011;6460;42.684;23.260;2022-07-29T00:53:33;11.07;;;9.97;;
12792;SDS011;6460;42.684;23.260;2022-07-29T00:56:02;11.03;;;10.03;;
12792;SDS011;6460;42.684;23.260;2022-07-29T00:58:30;11.33;;;10.23;;
12792;SDS011;6460;42.684;23.260;2022-07-29T01:00:59;11.30;;;10.20;;
12792;SDS011;6460;42.684;23.260;2022-07-29T01:03:26;11.20;;;10.20;;
12792;SDS011;6460;42.684;23.260;2022-07-29T01:05:53;10.93;;;9.80;;
12792;SDS011;6460;42.684;23.260;2022-07-29T01:08:21;10.83;;;9.80;;
12792;SDS011;6460;42.684;23.260;2022-07-29T01:10:50;11.23;;;10.13;;
12792;SDS011;6460;42.684;23.260;2022-07-29T01:13:18;11.17;;;9.97;;
12792;SDS011;6460;42.684;23.260;2022-07-29T01:15:51;10.90;;;10.00;;
12792;SDS011;6460;42.684;23.260;2022-07-29T01:18:27;11.83;;;10.73;;
12792;SDS011;6460;42.684;23.260;2022-07-29T01:23:59;10.73;;;9.63;;
12792;SDS011;6460;42.684;23.260;2022-07-29T01:26:42;12.43;;;10.30;;
12792;SDS011;6460;42.684;23.260;2022-07-29T01:29:19;10.97;;;9.87;;
12792;SDS011;6460;42.684;23.260;2022-07-29T01:31:54;11.67;;;10.47;;
12792;SDS011;6460;42.684;23.260;2022-07-29T01:34:25;12.13;;;10.93;;
12792;SDS011;6460;42.684;23.260;2022-07-29T01:37:01;11.97;;;10.90;;
12792;SDS011;6460;42.684;23.260;2022-07-29T01:39:35;12.40;;;11.20;;
12792;SDS011;6460;42.684;23.260;2022-07-29T01:42:05;13.03;;;11.73;;
12792;SDS011;6460;42.684;23.260;2022-07-29T01:44:41;13.13;;;11.73;;
12792;SDS011;6460;42.684;23.260;2022-07-29T01:47:15;12.97;;;11.60;;
12792;SDS011;6460;42.684;23.260;2022-07-29T01:49:47;12.53;;;11.33;;
12792;SDS011;6460;42.684;23.260;2022-07-29T01:52:19;13.13;;;11.83;;
12792;SDS011;6460;42.684;23.260;2022-07-29T01:54:52;13.63;;;12.20;;
12792;SDS011;6460;42.684;23.260;2022-07-29T01:57:24;12.73;;;11.53;;
12792;SDS011;6460;42.684;23.260;2022-07-29T01:59:54;12.33;;;10.87;;
12792;SDS011;6460;42.684;23.260;2022-07-29T02:02:25;12.97;;;11.60;;
12792;SDS011;6460;42.684;23.260;2022-07-29T02:04:54;11.70;;;10.60;;
12792;SDS011;6460;42.684;23.260;2022-07-29T02:07:23;13.03;;;11.07;;
12792;SDS011;6460;42.684;23.260;2022-07-29T02:09:54;12.30;;;10.30;;
12792;SDS011;6460;42.684;23.260;2022-07-29T02:12:23;14.63;;;11.23;;
12792;SDS011;6460;42.684;23.260;2022-07-29T02:14:56;12.23;;;10.40;;
12792;SDS011;6460;42.684;23.260;2022-07-29T02:17:27;10.83;;;9.73;;
12792;SDS011;6460;42.684;23.260;2022-07-29T02:19:59;13.00;;;10.77;;
12792;SDS011;6460;42.684;23.260;2022-07-29T02:22:30;12.77;;;9.47;;
12792;SDS011;6460;42.684;23.260;2022-07-29T02:25:00;11.23;;;10.13;;
12792;SDS011;6460;42.684;23.260;2022-07-29T02:27:28;12.07;;;10.53;;
12792;SDS011;6460;42.684;23.260;2022-07-29T02:29:57;12.27;;;11.07;;
12792;SDS011;6460;42.684;23.260;2022-07-29T02:32:28;12.13;;;10.50;;
12792;SDS011;6460;42.684;23.260;2022-07-29T02:34:57;11.03;;;9.93;;
12792;SDS011;6460;42.684;23.260;2022-07-29T02:37:27;14.10;;;10.20;;
12792;SDS011;6460;42.684;23.260;2022-07-29T02:39:56;12.07;;;10.17;;
12792;SDS011;6460;42.684;23.260;2022-07-29T02:42:26;13.23;;;11.10;;
12792;SDS011;6460;42.684;23.260;2022-07-29T02:44:54;12.83;;;10.00;;
12792;SDS011;6460;42.684;23.260;2022-07-29T02:47:24;12.47;;;10.23;;
12792;SDS011;6460;42.684;23.260;2022-07-29T02:50:00;12.77;;;9.97;;
12792;SDS011;6460;42.684;23.260;2022-07-29T02:52:34;11.63;;;10.10;;
12792;SDS011;6460;42.684;23.260;2022-07-29T02:55:11;11.07;;;9.63;;
12792;SDS011;6460;42.684;23.260;2022-07-29T02:57:43;10.63;;;9.53;;
12792;SDS011;6460;42.684;23.260;2022-07-29T03:00:16;14.70;;;10.53;;
12792;SDS011;6460;42.684;23.260;2022-07-29T03:02:44;11.13;;;10.00;;
12792;SDS011;6460;42.684;23.260;2022-07-29T03:05:17;11.07;;;9.97;;
12792;SDS011;6460;42.684;23.260;2022-07-29T03:07:48;11.70;;;10.50;;
12792;SDS011;6460;42.684;23.260;2022-07-29T03:10:19;12.37;;;10.20;;
12792;SDS011;6460;42.684;23.260;2022-07-29T03:12:47;12.83;;;10.23;;
12792;SDS011;6460;42.684;23.260;2022-07-29T03:15:16;12.87;;;11.30;;
12792;SDS011;6460;42.684;23.260;2022-07-29T03:17:44;13.47;;;11.43;;
12792;SDS011;6460;42.684;23.260;2022-07-29T03:20:12;12.43;;;11.20;;
12792;SDS011;6460;42.684;23.260;2022-07-29T03:22:41;12.50;;;11.13;;
12792;SDS011;6460;42.684;23.260;2022-07-29T03:25:09;12.53;;;11.33;;
12792;SDS011;6460;42.684;23.260;2022-07-29T03:27:37;13.00;;;11.70;;
12792;SDS011;6460;42.684;23.260;2022-07-29T03:30:06;12.07;;;10.87;;
12792;SDS011;6460;42.684;23.260;2022-07-29T03:32:35;14.40;;;12.43;;
12792;SDS011;6460;42.684;23.260;2022-07-29T03:35:03;12.60;;;11.40;;
12792;SDS011;6460;42.684;23.260;2022-07-29T03:37:31;14.03;;;12.53;;
12792;SDS011;6460;42.684;23.260;2022-07-29T03:40:02;15.33;;;12.73;;
12792;SDS011;6460;42.684;23.260;2022-07-29T03:42:32;13.83;;;12.43;;
12792;SDS011;6460;42.684;23.260;2022-07-29T03:45:03;15.03;;;13.53;;
12792;SDS011;6460;42.684;23.260;2022-07-29T03:47:34;15.03;;;13.53;;
12792;SDS011;6460;42.684;23.260;2022-07-29T03:50:05;15.30;;;13.70;;
12792;SDS011;6460;42.684;23.260;2022-07-29T03:52:33;17.33;;;14.10;;
12792;SDS011;6460;42.684;23.260;2022-07-29T03:55:02;17.33;;;14.63;;
12792;SDS011;6460;42.684;23.260;2022-07-29T03:57:30;16.73;;;14.40;;
12792;SDS011;6460;42.684;23.260;2022-07-29T03:59:58;15.17;;;13.60;;
12792;SDS011;6460;42.684;23.260;2022-07-29T04:02:27;15.77;;;14.17;;
12792;SDS011;6460;42.684;23.260;2022-07-29T04:04:56;15.73;;;14.13;;
12792;SDS011;6460;42.684;23.260;2022-07-29T04:07:24;21.47;;;15.03;;
12792;SDS011;6460;42.684;23.260;2022-07-29T04:09:51;15.47;;;12.97;;
12792;SDS011;6460;42.684;23.260;2022-07-29T04:12:18;15.43;;;13.83;;
12792;SDS011;6460;42.684;23.260;2022-07-29T04:14:46;14.37;;;12.90;;
12792;SDS011;6460;42.684;23.260;2022-07-29T04:17:13;14.60;;;13.17;;
12792;SDS011;6460;42.684;23.260;2022-07-29T04:19:41;15.57;;;13.90;;
12792;SDS011;6460;42.684;23.260;2022-07-29T04:22:09;14.17;;;12.77;;
12792;SDS011;6460;42.684;23.260;2022-07-29T04:24:36;14.87;;;13.10;;
12792;SDS011;6460;42.684;23.260;2022-07-29T04:27:04;14.47;;;13.00;;
12792;SDS011;6460;42.684;23.260;2022-07-29T04:29:31;14.20;;;12.60;;
12792;SDS011;6460;42.684;23.260;2022-07-29T04:31:58;14.63;;;13.13;;
12792;SDS011;6460;42.684;23.260;2022-07-29T04:34:25;15.03;;;13.57;;
12792;SDS011;6460;42.684;23.260;2022-07-29T04:36:52;15.03;;;13.33;;
12792;SDS011;6460;42.684;23.260;2022-07-29T04:39:21;14.80;;;13.33;;
12792;SDS011;6460;42.684;23.260;2022-07-29T04:41:48;14.87;;;13.23;;
12792;SDS011;6460;42.684;23.260;2022-07-29T04:44:16;14.93;;;13.53;;
12792;SDS011;6460;42.684;23.260;2022-07-29T04:46:43;15.00;;;13.47;;
12792;SDS011;6460;42.684;23.260;2022-07-29T04:49:11;14.93;;;13.63;;
12792;SDS011;6460;42.684;23.260;2022-07-29T04:51:38;14.73;;;13.23;;
12792;SDS011;6460;42.684;23.260;2022-07-29T04:54:05;16.17;;;14.60;;
12792;SDS011;6460;42.684;23.260;2022-07-29T04:56:34;15.60;;;14.10;;
12792;SDS011;6460;42.684;23.260;2022-07-29T04:59:01;14.93;;;13.43;;
12792;SDS011;6460;42.684;23.260;2022-07-29T05:01:29;15.23;;;13.50;;
12792;SDS011;6460;42.684;23.260;2022-07-29T05:03:56;16.50;;;14.03;;
12792;SDS011;6460;42.684;23.260;2022-07-29T05:06:23;14.73;;;13.00;;
12792;SDS011;6460;42.684;23.260;2022-07-29T05:08:50;14.47;;;12.97;;
12792;SDS011;6460;42.684;23.260;2022-07-29T05:11:17;14.93;;;13.33;;
12792;SDS011;6460;42.684;23.260;2022-07-29T05:13:46;14.70;;;13.30;;
12792;SDS011;6460;42.684;23.260;2022-07-29T05:16:13;14.70;;;13.40;;
12792;SDS011;6460;42.684;23.260;2022-07-29T05:18:41;15.23;;;13.47;;
12792;SDS011;6460;42.684;23.260;2022-07-29T05:21:09;14.47;;;13.07;;
12792;SDS011;6460;42.684;23.260;2022-07-29T05:23:37;15.80;;;14.30;;
12792;SDS011;6460;42.684;23.260;2022-07-29T05:26:04;14.53;;;13.03;;
12792;SDS011;6460;42.684;23.260;2022-07-29T05:28:32;16.03;;;13.67;;
12792;SDS011;6460;42.684;23.260;2022-07-29T05:31:01;16.23;;;13.50;;
12792;SDS011;6460;42.684;23.260;2022-07-29T05:33:28;18.13;;;14.40;;
12792;SDS011;6460;42.684;23.260;2022-07-29T05:35:56;15.50;;;13.70;;
12792;SDS011;6460;42.684;23.260;2022-07-29T05:38:26;17.03;;;14.43;;
12792;SDS011;6460;42.684;23.260;2022-07-29T05:40:55;15.90;;;14.30;;
12792;SDS011;6460;42.684;23.260;2022-07-29T05:43:23;16.37;;;13.03;;
12792;SDS011;6460;42.684;23.260;2022-07-29T05:45:50;14.50;;;13.10;;
12792;SDS011;6460;42.684;23.260;2022-07-29T05:48:19;15.33;;;13.33;;
12792;SDS011;6460;42.684;23.260;2022-07-29T05:50:47;15.30;;;13.00;;
12792;SDS011;6460;42.684;23.260;2022-07-29T05:53:14;14.20;;;12.60;;
12792;SDS011;6460;42.684;23.260;2022-07-29T05:55:41;15.27;;;13.27;;
12792;SDS011;6460;42.684;23.260;2022-07-29T05:58:08;15.00;;;13.57;;
12792;SDS011;6460;42.684;23.260;2022-07-29T06:00:35;15.43;;;13.10;;
12792;SDS011;6460;42.684;23.260;2022-07-29T06:03:03;17.83;;;13.60;;
12792;SDS011;6460;42.684;23.260;2022-07-29T06:05:32;14.80;;;13.30;;
12792;SDS011;6460;42.684;23.260;2022-07-29T06:07:59;19.83;;;17.70;;
12792;SDS011;6460;42.684;23.260;2022-07-29T06:10:26;21.67;;;19.47;;
12792;SDS011;6460;42.684;23.260;2022-07-29T06:12:54;20.63;;;18.47;;
12792;SDS011;6460;42.684;23.260;2022-07-29T06:15:21;18.73;;;16.87;;
12792;SDS011;6460;42.684;23.260;2022-07-29T06:17:48;17.57;;;15.97;;
12792;SDS011;6460;42.684;23.260;2022-07-29T06:20:16;19.70;;;16.77;;
12792;SDS011;6460;42.684;23.260;2022-07-29T06:22:44;17.30;;;15.60;;
12792;SDS011;6460;42.684;23.260;2022-07-29T06:25:12;15.93;;;14.43;;
12792;SDS011;6460;42.684;23.260;2022-07-29T06:27:39;17.87;;;13.90;;
12792;SDS011;6460;42.684;23.260;2022-07-29T06:30:06;16.43;;;14.83;;
12792;SDS011;6460;42.684;23.260;2022-07-29T06:32:35;17.37;;;14.90;;
12792;SDS011;6460;42.684;23.260;2022-07-29T06:35:02;19.50;;;17.17;;
12792;SDS011;6460;42.684;23.260;2022-07-29T06:37:31;14.83;;;13.03;;
12792;SDS011;6460;42.684;23.260;2022-07-29T06:39:59;15.37;;;13.87;;
12792;SDS011;6460;42.684;23.260;2022-07-29T06:42:44;13.77;;;12.03;;
12792;SDS011;6460;42.684;23.260;2022-07-29T06:45:11;11.43;;;10.23;;
12792;SDS011;6460;42.684;23.260;2022-07-29T06:47:39;10.47;;;8.37;;
12792;SDS011;6460;42.684;23.260;2022-07-29T06:50:06;7.70;;;7.00;;
12792;SDS011;6460;42.684;23.260;2022-07-29T06:52:37;7.37;;;6.67;;
12792;SDS011;6460;42.684;23.260;2022-07-29T06:55:06;7.87;;;7.10;;
12792;SDS011;6460;42.684;23.260;2022-07-29T06:57:34;10.33;;;9.27;;
12792;SDS011;6460;42.684;23.260;2022-07-29T07:00:02;13.23;;;11.90;;
12792;SDS011;6460;42.684;23.260;2022-07-29T07:02:32;7.40;;;6.73;;
12792;SDS011;6460;42.684;23.260;2022-07-29T07:04:59;7.23;;;6.10;;
12792;SDS011;6460;42.684;23.260;2022-07-29T07:07:26;8.00;;;6.67;;
12792;SDS011;6460;42.684;23.260;2022-07-29T07:09:53;7.60;;;6.70;;
12792;SDS011;6460;42.684;23.260;2022-07-29T07:12:22;7.20;;;6.50;;
12792;SDS011;6460;42.684;23.260;2022-07-29T07:14:49;8.63;;;6.47;;
12792;SDS011;6460;42.684;23.260;2022-07-29T07:17:16;11.10;;;6.50;;
12792;SDS011;6460;42.684;23.260;2022-07-29T07:19:44;10.40;;;6.77;;
12792;SDS011;6460;42.684;23.260;2022-07-29T07:22:11;9.07;;;6.53;;
12792;SDS011;6460;42.684;23.260;2022-07-29T07:24:38;7.30;;;6.60;;
12792;SDS011;6460;42.684;23.260;2022-07-29T07:27:05;7.70;;;6.90;;
12792;SDS011;6460;42.684;23.260;2022-07-29T07:29:34;7.30;;;6.53;;
12792;SDS011;6460;42.684;23.260;2022-07-29T07:32:01;8.40;;;7.23;;
12792;SDS011;6460;42.684;23.260;2022-07-29T07:34:29;8.20;;;6.53;;
12792;SDS011;6460;42.684;23.260;2022-07-29T07:36:56;6.73;;;6.13;;
12792;SDS011;6460;42.684;23.260;2022-07-29T07:39:23;9.47;;;6.67;;
12792;SDS011;6460;42.684;23.260;2022-07-29T07:41:51;7.13;;;6.40;;
12792;SDS011;6460;42.684;23.260;2022-07-29T07:44:18;7.23;;;6.63;;
12792;SDS011;6460;42.684;23.260;2022-07-29T07:46:47;8.40;;;6.50;;
12792;SDS011;6460;42.684;23.260;2022-07-29T07:49:14;6.63;;;6.03;;
12792;SDS011;6460;42.684;23.260;2022-07-29T07:51:41;6.50;;;5.90;;
12792;SDS011;6460;42.684;23.260;2022-07-29T07:54:09;6.90;;;6.30;;
12792;SDS011;6460;42.684;23.260;2022-07-29T07:56:36;8.67;;;6.70;;
12792;SDS011;6460;42.684;23.260;2022-07-29T07:59:03;8.93;;;6.47;;
12792;SDS011;6460;42.684;23.260;2022-07-29T08:01:30;8.20;;;6.20;;
12792;SDS011;6460;42.684;23.260;2022-07-29T08:03:59;8.57;;;6.47;;
12792;SDS011;6460;42.684;23.260;2022-07-29T08:06:26;7.77;;;6.13;;
12792;SDS011;6460;42.684;23.260;2022-07-29T08:08:53;6.40;;;5.80;;
12792;SDS011;6460;42.684;23.260;2022-07-29T08:11:21;7.37;;;5.87;;
12792;SDS011;6460;42.684;23.260;2022-07-29T08:13:48;8.27;;;5.77;;
12792;SDS011;6460;42.684;23.260;2022-07-29T08:16:15;5.83;;;5.20;;
12792;SDS011;6460;42.684;23.260;2022-07-29T08:18:43;8.63;;;5.57;;
12792;SDS011;6460;42.684;23.260;2022-07-29T08:21:12;6.00;;;5.50;;
12792;SDS011;6460;42.684;23.260;2022-07-29T08:23:41;6.60;;;5.60;;
12792;SDS011;6460;42.684;23.260;2022-07-29T08:26:14;6.10;;;5.53;;
12792;SDS011;6460;42.684;23.260;2022-07-29T08:28:42;13.83;;;6.33;;
12792;SDS011;6460;42.684;23.260;2022-07-29T08:31:11;19.53;;;7.90;;
12792;SDS011;6460;42.684;23.260;2022-07-29T08:33:38;7.80;;;5.40;;
12792;SDS011;6460;42.684;23.260;2022-07-29T08:36:06;5.60;;;5.03;;
12792;SDS011;6460;42.684;23.260;2022-07-29T08:38:35;6.00;;;5.17;;
12792;SDS011;6460;42.684;23.260;2022-07-29T08:41:02;5.27;;;4.80;;
12792;SDS011;6460;42.684;23.260;2022-07-29T08:43:29;5.67;;;5.17;;
12792;SDS011;6460;42.684;23.260;2022-07-29T08:45:57;5.33;;;4.80;;
12792;SDS011;6460;42.684;23.260;2022-07-29T08:48:24;5.30;;;4.90;;
12792;SDS011;6460;42.684;23.260;2022-07-29T08:50:52;5.97;;;5.30;;
12792;SDS011;6460;42.684;23.260;2022-07-29T08:53:22;5.40;;;5.00;;
12792;SDS011;6460;42.684;23.260;2022-07-29T08:55:54;6.43;;;5.30;;
12792;SDS011;6460;42.684;23.260;2022-07-29T08:58:22;6.57;;;5.40;;
12792;SDS011;6460;42.684;23.260;2022-07-29T09:00:50;5.50;;;4.77;;
12792;SDS011;6460;42.684;23.260;2022-07-29T09:03:20;5.33;;;4.83;;
12792;SDS011;6460;42.684;23.260;2022-07-29T09:05:50;6.70;;;5.23;;
12792;SDS011;6460;42.684;23.260;2022-07-29T09:08:18;7.73;;;4.90;;
12792;SDS011;6460;42.684;23.260;2022-07-29T09:10:46;5.77;;;5.23;;
12792;SDS011;6460;42.684;23.260;2022-07-29T09:13:14;5.20;;;4.70;;
12792;SDS011;6460;42.684;23.260;2022-07-29T09:15:41;5.77;;;5.13;;
12792;SDS011;6460;42.684;23.260;2022-07-29T09:18:09;7.37;;;5.00;;
12792;SDS011;6460;42.684;23.260;2022-07-29T09:20:36;5.67;;;5.17;;
12792;SDS011;6460;42.684;23.260;2022-07-29T09:23:20;6.07;;;5.47;;
12792;SDS011;6460;42.684;23.260;2022-07-29T09:25:48;5.37;;;4.83;;
12792;SDS011;6460;42.684;23.260;2022-07-29T09:28:17;5.30;;;4.90;;
12792;SDS011;6460;42.684;23.260;2022-07-29T09:30:49;5.80;;;5.30;;
12792;SDS011;6460;42.684;23.260;2022-07-29T09:33:17;5.73;;;5.30;;
12792;SDS011;6460;42.684;23.260;2022-07-29T09:35:45;5.93;;;5.23;;
12792;SDS011;6460;42.684;23.260;2022-07-29T09:38:12;6.73;;;5.23;;
12792;SDS011;6460;42.684;23.260;2022-07-29T09:40:40;5.43;;;5.00;;
12792;SDS011;6460;42.684;23.260;2022-07-29T09:43:11;5.43;;;4.70;;
12792;SDS011;6460;42.684;23.260;2022-07-29T09:45:40;5.67;;;5.07;;
12792;SDS011;6460;42.684;23.260;2022-07-29T09:48:14;5.73;;;5.23;;
12792;SDS011;6460;42.684;23.260;2022-07-29T09:50:43;5.80;;;5.20;;
12792;SDS011;6460;42.684;23.260;2022-07-29T09:53:12;5.47;;;5.07;;
12792;SDS011;6460;42.684;23.260;2022-07-29T09:55:56;5.60;;;4.80;;
12792;SDS011;6460;42.684;23.260;2022-07-29T09:58:23;5.80;;;4.97;;
12792;SDS011;6460;42.684;23.260;2022-07-29T10:00:52;7.07;;;5.40;;
12792;SDS011;6460;42.684;23.260;2022-07-29T10:03:21;5.60;;;4.70;;
12792;SDS011;6460;42.684;23.260;2022-07-29T10:06:03;7.27;;;5.20;;
12792;SDS011;6460;42.684;23.260;2022-07-29T10:08:32;5.57;;;4.93;;
12792;SDS011;6460;42.684;23.260;2022-07-29T10:11:08;7.70;;;5.60;;
12792;SDS011;6460;42.684;23.260;2022-07-29T10:13:37;6.10;;;5.50;;
12792;SDS011;6460;42.684;23.260;2022-07-29T10:16:07;6.07;;;5.57;;
12792;SDS011;6460;42.684;23.260;2022-07-29T10:18:34;7.13;;;5.33;;
12792;SDS011;6460;42.684;23.260;2022-07-29T10:21:04;5.80;;;5.20;;
12792;SDS011;6460;42.684;23.260;2022-07-29T10:23:31;6.17;;;5.57;;
12792;SDS011;6460;42.684;23.260;2022-07-29T10:26:00;6.50;;;5.90;;
12792;SDS011;6460;42.684;23.260;2022-07-29T10:28:29;6.30;;;5.70;;
12792;SDS011;6460;42.684;23.260;2022-07-29T10:30:59;6.30;;;5.77;;
12792;SDS011;6460;42.684;23.260;2022-07-29T10:33:37;7.07;;;6.47;;
12792;SDS011;6460;42.684;23.260;2022-07-29T10:39:05;6.80;;;6.27;;
12792;SDS011;6460;42.684;23.260;2022-07-29T10:44:39;8.00;;;6.47;;
12792;SDS011;6460;42.684;23.260;2022-07-29T10:47:07;9.83;;;8.47;;
12792;SDS011;6460;42.684;23.260;2022-07-29T10:49:36;6.57;;;6.03;;
12792;SDS011;6460;42.684;23.260;2022-07-29T10:52:04;7.57;;;5.70;;
12792;SDS011;6460;42.684;23.260;2022-07-29T10:54:45;6.40;;;5.90;;
12792;SDS011;6460;42.684;23.260;2022-07-29T10:57:16;7.00;;;6.40;;
12792;SDS011;6460;42.684;23.260;2022-07-29T10:59:50;12.07;;;11.10;;
12792;SDS011;6460;42.684;23.260;2022-07-29T11:02:43;8.17;;;6.10;;
12792;SDS011;6460;42.684;23.260;2022-07-29T11:05:15;10.73;;;8.13;;
12792;SDS011;6460;42.684;23.260;2022-07-29T11:10:51;32.73;;;26.60;;
12792;SDS011;6460;42.684;23.260;2022-07-29T11:13:49;11.80;;;9.40;;
12792;SDS011;6460;42.684;23.260;2022-07-29T11:16:18;7.77;;;7.17;;
12792;SDS011;6460;42.684;23.260;2022-07-29T11:21:48;7.33;;;6.73;;
12792;SDS011;6460;42.684;23.260;2022-07-29T11:24:17;7.57;;;6.87;;
12792;SDS011;6460;42.684;23.260;2022-07-29T11:29:39;7.50;;;6.63;;
12792;SDS011;6460;42.684;23.260;2022-07-29T11:32:14;7.00;;;6.40;;
12792;SDS011;6460;42.684;23.260;2022-07-29T11:34:45;6.70;;;6.20;;
12792;SDS011;6460;42.684;23.260;2022-07-29T11:37:23;7.10;;;6.53;;
12792;SDS011;6460;42.684;23.260;2022-07-29T11:42:45;7.20;;;6.67;;
12792;SDS011;6460;42.684;23.260;2022-07-29T11:45:17;9.63;;;6.83;;
12792;SDS011;6460;42.684;23.260;2022-07-29T11:47:52;7.00;;;6.50;;
12792;SDS011;6460;42.684;23.260;2022-07-29T11:50:27;8.80;;;8.00;;
12792;SDS011;6460;42.684;23.260;2022-07-29T11:53:00;6.53;;;5.93;;
12792;SDS011;6460;42.684;23.260;2022-07-29T11:55:29;6.80;;;6.30;;
12792;SDS011;6460;42.684;23.260;2022-07-29T11:58:01;7.00;;;6.30;;
12792;SDS011;6460;42.684;23.260;2022-07-29T12:00:29;6.93;;;6.30;;
12792;SDS011;6460;42.684;23.260;2022-07-29T12:02:58;7.20;;;6.53;;
12792;SDS011;6460;42.684;23.260;2022-07-29T12:05:38;7.00;;;6.50;;
12792;SDS011;6460;42.684;23.260;2022-07-29T12:08:09;7.07;;;6.40;;
12792;SDS011;6460;42.684;23.260;2022-07-29T12:10:38;7.33;;;6.73;;
12792;SDS011;6460;42.684;23.260;2022-07-29T12:13:06;7.50;;;6.90;;
12792;SDS011;6460;42.684;23.260;2022-07-29T12:15:34;6.88;;;6.18;;
12792;SDS011;6460;42.684;23.260;2022-07-29T12:18:11;7.00;;;6.50;;
12792;SDS011;6460;42.684;23.260;2022-07-29T12:20:39;6.63;;;6.13;;
12792;SDS011;6460;42.684;23.260;2022-07-29T12:23:08;7.45;;;6.75;;
12792;SDS011;6460;42.684;23.260;2022-07-29T12:25:37;7.55;;;6.85;;
12792;SDS011;6460;42.684;23.260;2022-07-29T12:28:06;6.97;;;6.30;;
12792;SDS011;6460;42.684;23.260;2022-07-29T12:30:35;7.20;;;6.50;;
12792;SDS011;6460;42.684;23.260;2022-07-29T12:33:15;6.88;;;6.38;;
12792;SDS011;6460;42.684;23.260;2022-07-29T12:35:45;7.25;;;6.65;;
12792;SDS011;6460;42.684;23.260;2022-07-29T12:38:15;7.00;;;6.30;;
12792;SDS011;6460;42.684;23.260;2022-07-29T12:40:43;7.35;;;6.75;;
12792;SDS011;6460;42.684;23.260;2022-07-29T12:43:14;6.97;;;6.40;;
12792;SDS011;6460;42.684;23.260;2022-07-29T12:45:43;6.72;;;6.22;;
12792;SDS011;6460;42.684;23.260;2022-07-29T12:48:11;7.43;;;6.78;;
12792;SDS011;6460;42.684;23.260;2022-07-29T12:50:52;6.97;;;6.38;;
12792;SDS011;6460;42.684;23.260;2022-07-29T12:53:22;8.43;;;6.43;;
12792;SDS011;6460;42.684;23.260;2022-07-29T12:55:50;7.10;;;6.60;;
12792;SDS011;6460;42.684;23.260;2022-07-29T12:58:27;7.50;;;6.90;;
12792;SDS011;6460;42.684;23.260;2022-07-29T13:01:07;7.07;;;6.45;;
12792;SDS011;6460;42.684;23.260;2022-07-29T13:03:43;6.90;;;6.30;;
12792;SDS011;6460;42.684;23.260;2022-07-29T13:06:27;7.03;;;6.53;;
12792;SDS011;6460;42.684;23.260;2022-07-29T13:09:05;7.30;;;6.72;;
12792;SDS011;6460;42.684;23.260;2022-07-29T13:11:35;7.70;;;7.00;;
12792;SDS011;6460;42.684;23.260;2022-07-29T13:14:04;7.10;;;6.40;;
12792;SDS011;6460;42.684;23.260;2022-07-29T13:16:33;7.18;;;6.45;;
12792;SDS011;6460;42.684;23.260;2022-07-29T13:19:08;7.35;;;6.78;;
12792;SDS011;6460;42.684;23.260;2022-07-29T13:21:36;7.53;;;6.93;;
12792;SDS011;6460;42.684;23.260;2022-07-29T13:24:06;7.40;;;6.88;;
12792;SDS011;6460;42.684;23.260;2022-07-29T13:26:34;7.00;;;6.40;;
12792;SDS011;6460;42.684;23.260;2022-07-29T13:29:01;7.32;;;6.72;;
12792;SDS011;6460;42.684;23.260;2022-07-29T13:31:29;7.15;;;6.45;;
12792;SDS011;6460;42.684;23.260;2022-07-29T13:33:56;7.65;;;6.85;;
12792;SDS011;6460;42.684;23.260;2022-07-29T13:36:23;12.52;;;8.00;;
12792;SDS011;6460;42.684;23.260;2022-07-29T13:38:52;8.40;;;7.50;;
12792;SDS011;6460;42.684;23.260;2022-07-29T13:41:20;7.80;;;7.13;;
12792;SDS011;6460;42.684;23.260;2022-07-29T13:43:47;7.75;;;6.82;;
12792;SDS011;6460;42.684;23.260;2022-07-29T13:46:15;7.10;;;6.50;;
12792;SDS011;6460;42.684;23.260;2022-07-29T13:48:42;7.25;;;6.65;;
12792;SDS011;6460;42.684;23.260;2022-07-29T13:51:09;7.18;;;6.53;;
12792;SDS011;6460;42.684;23.260;2022-07-29T13:53:36;7.00;;;6.50;;
12792;SDS011;6460;42.684;23.260;2022-07-29T13:56:03;6.60;;;6.10;;
12792;SDS011;6460;42.684;23.260;2022-07-29T13:58:33;7.22;;;6.70;;
12792;SDS011;6460;42.684;23.260;2022-07-29T14:01:01;7.57;;;6.88;;
12792;SDS011;6460;42.684;23.260;2022-07-29T14:03:28;7.68;;;6.88;;
12792;SDS011;6460;42.684;23.260;2022-07-29T14:05:56;7.03;;;6.40;;
12792;SDS011;6460;42.684;23.260;2022-07-29T14:08:25;7.18;;;6.47;;
12792;SDS011;6460;42.684;23.260;2022-07-29T14:10:52;7.00;;;6.40;;
12792;SDS011;6460;42.684;23.260;2022-07-29T14:13:19;6.70;;;6.10;;
12792;SDS011;6460;42.684;23.260;2022-07-29T14:15:48;7.15;;;6.65;;
12792;SDS011;6460;42.684;23.260;2022-07-29T14:18:15;7.00;;;6.50;;
12792;SDS011;6460;42.684;23.260;2022-07-29T14:20:43;9.68;;;8.68;;
12792;SDS011;6460;42.684;23.260;2022-07-29T14:23:10;6.97;;;6.38;;
12792;SDS011;6460;42.684;23.260;2022-07-29T14:25:37;6.90;;;6.13;;
12792;SDS011;6460;42.684;23.260;2022-07-29T14:28:04;7.07;;;6.20;;
12792;SDS011;6460;42.684;23.260;2022-07-29T14:30:32;8.27;;;6.60;;
12792;SDS011;6460;42.684;23.260;2022-07-29T14:33:00;8.10;;;6.50;;
12792;SDS011;6460;42.684;23.260;2022-07-29T14:35:28;7.50;;;6.50;;
12792;SDS011;6460;42.684;23.260;2022-07-29T14:37:55;6.60;;;6.10;;
12792;SDS011;6460;42.684;23.260;2022-07-29T14:40:22;7.28;;;6.60;;
12792;SDS011;6460;42.684;23.260;2022-07-29T14:42:50;7.43;;;6.93;;
12792;SDS011;6460;42.684;23.260;2022-07-29T14:45:18;7.20;;;6.70;;
12792;SDS011;6460;42.684;23.260;2022-07-29T14:47:45;7.10;;;6.50;;
12792;SDS011;6460;42.684;23.260;2022-07-29T14:50:15;7.40;;;6.80;;
12792;SDS011;6460;42.684;23.260;2022-07-29T14:52:43;7.38;;;6.63;;
12792;SDS011;6460;42.684;23.260;2022-07-29T14:55:10;7.80;;;7.20;;
12792;SDS011;6460;42.684;23.260;2022-07-29T14:57:38;7.60;;;7.00;;
12792;SDS011;6460;42.684;23.260;2022-07-29T15:00:05;7.18;;;6.63;;
12792;SDS011;6460;42.684;23.260;2022-07-29T15:02:34;6.72;;;6.32;;
12792;SDS011;6460;42.684;23.260;2022-07-29T15:05:01;6.88;;;6.28;;
12792;SDS011;6460;42.684;23.260;2022-07-29T15:07:30;7.57;;;6.90;;
12792;SDS011;6460;42.684;23.260;2022-07-29T15:09:57;7.47;;;6.88;;